createdAt,value
2022-10-02T06:03:15.439Z,10.91
2022-10-02T06:06:34.797Z,10.84
2022-10-02T06:09:55.520Z,10.83
2022-10-02T06:13:35.699Z,10.84
2022-10-02T06:16:53.997Z,10.87
2022-10-02T06:20:04.211Z,10.89
2022-10-02T06:23:31.670Z,10.89
2022-10-02T06:26:49.378Z,10.89
2022-10-02T06:30:11.294Z,10.88
2022-10-02T06:33:26.430Z,10.90
2022-10-02T06:36:42.896Z,10.92
2022-10-02T06:40:12.031Z,10.94
2022-10-02T06:43:54.682Z,10.93
2022-10-02T06:47:18.283Z,10.89
2022-10-02T06:50:43.202Z,10.86
2022-10-02T06:53:56.756Z,10.87
2022-10-02T06:57:11.558Z,10.86
2022-10-02T07:00:21.296Z,10.89
2022-10-02T07:04:27.433Z,10.94
2022-10-02T07:08:01.289Z,11.00
2022-10-02T07:11:32.334Z,11.06
2022-10-02T07:16:12.789Z,11.20
2022-10-02T07:25:01.586Z,11.38
2022-10-02T07:28:44.006Z,11.35
2022-10-02T07:32:52.154Z,11.31
2022-10-02T07:36:20.139Z,11.28
2022-10-02T09:46:35.317Z,12.75
2022-10-02T10:40:30.636Z,13.78
2022-10-02T11:14:01.078Z,13.71
2022-10-02T11:59:51.122Z,13.35
2022-10-02T12:03:24.834Z,13.29
2022-10-02T12:11:40.830Z,13.26
2022-10-02T12:15:57.178Z,13.21
2022-10-02T12:25:10.256Z,12.90
2022-10-02T12:47:24.846Z,13.16
2022-10-02T12:55:36.917Z,13.78
2022-10-02T13:05:04.707Z,14.15
2022-10-02T13:14:22.143Z,14.06
2022-10-02T13:18:48.181Z,14.15
2022-10-02T13:22:34.093Z,14.28
2022-10-02T14:06:03.284Z,14.62
2022-10-02T14:09:12.470Z,14.74
2022-10-02T14:13:14.611Z,14.98
2022-10-02T14:16:30.754Z,14.96
2022-10-02T14:19:51.732Z,14.92
2022-10-02T14:23:25.409Z,14.83
2022-10-02T14:27:22.245Z,14.62
2022-10-02T14:31:08.760Z,14.58
2022-10-02T14:56:23.993Z,14.29
2022-10-02T14:59:52.654Z,14.18
2022-10-02T15:03:23.474Z,14.10
2022-10-02T15:21:12.518Z,14.19
2022-10-02T15:24:48.438Z,14.29
2022-10-02T15:28:43.916Z,14.35
2022-10-02T15:32:07.056Z,14.38
2022-10-02T15:35:44.192Z,14.38
2022-10-02T15:39:28.149Z,14.39
2022-10-02T15:43:17.361Z,14.34
2022-10-02T15:46:33.754Z,14.35
2022-10-02T15:50:35.484Z,14.33
2022-10-02T15:54:21.554Z,14.41
2022-10-02T15:57:54.535Z,14.42
2022-10-02T16:01:43.478Z,14.37
2022-10-02T16:05:32.009Z,14.23
2022-10-02T16:09:06.946Z,14.09
2022-10-02T16:12:41.877Z,13.96
2022-10-02T16:16:00.806Z,13.92
2022-10-02T16:19:53.099Z,13.92
2022-10-02T16:23:16.079Z,13.86
2022-10-02T16:27:00.032Z,13.81
2022-10-02T16:30:32.100Z,13.75
2022-10-02T16:34:16.278Z,13.61
2022-10-02T16:37:29.329Z,13.57
2022-10-02T16:40:58.570Z,13.52
2022-10-02T16:44:47.246Z,13.45
2022-10-02T16:48:05.050Z,13.41
2022-10-02T16:51:40.191Z,13.28
2022-10-02T16:55:19.125Z,13.27
2022-10-02T16:58:43.995Z,13.23
2022-10-02T17:02:32.310Z,13.23
2022-10-02T17:05:54.694Z,13.21
2022-10-02T17:09:20.362Z,13.17
2022-10-02T17:12:54.989Z,13.13
2022-10-02T17:16:57.889Z,13.09
2022-10-02T17:20:07.732Z,13.05
2022-10-02T17:23:15.525Z,13.06
2022-10-02T17:26:44.670Z,13.02
2022-10-02T17:30:24.312Z,12.99
2022-10-02T17:33:40.097Z,12.99
2022-10-02T17:37:32.189Z,12.97
2022-10-02T17:41:20.407Z,12.94
2022-10-02T17:44:46.074Z,12.89
2022-10-02T17:48:11.492Z,12.85
2022-10-02T17:51:51.176Z,12.85
2022-10-02T17:55:41.769Z,12.78
2022-10-02T17:59:12.996Z,12.72
2022-10-02T18:02:41.259Z,12.71
2022-10-02T18:06:01.582Z,12.70
2022-10-02T18:09:47.352Z,12.68
2022-10-02T18:13:56.073Z,12.68
2022-10-02T18:17:23.816Z,12.67
2022-10-02T18:20:43.450Z,12.66
2022-10-02T18:24:02.837Z,12.63
2022-10-02T18:27:37.703Z,12.60
2022-10-02T18:31:07.939Z,12.54
2022-10-02T18:34:57.041Z,12.54
2022-10-02T18:38:31.134Z,12.55
2022-10-02T18:41:55.817Z,12.57
2022-10-02T18:45:37.882Z,12.59
2022-10-02T18:49:09.196Z,12.62
2022-10-02T18:52:28.400Z,12.66
2022-10-02T18:55:50.170Z,12.66
2022-10-02T18:59:27.478Z,12.67
2022-10-02T19:02:53.910Z,12.61
2022-10-02T19:06:11.428Z,12.58
2022-10-02T19:09:22.873Z,12.57
2022-10-02T19:12:31.427Z,12.57
2022-10-02T19:15:36.649Z,12.58
2022-10-02T19:18:40.864Z,12.57
2022-10-02T19:21:45.699Z,12.56
2022-10-02T19:25:05.614Z,12.55
2022-10-02T19:28:19.581Z,12.55
2022-10-02T19:31:27.443Z,12.53
2022-10-02T19:34:32.420Z,12.50
2022-10-02T19:37:44.282Z,12.47
2022-10-02T19:40:54.249Z,12.41
2022-10-02T19:44:06.838Z,12.38
2022-10-02T19:47:45.588Z,12.37
2022-10-02T19:50:55.402Z,12.36
2022-10-02T19:54:03.489Z,12.36
2022-10-02T19:57:16.495Z,12.34
2022-10-02T20:00:21.095Z,12.30
2022-10-02T20:03:27.080Z,12.30
2022-10-02T20:06:37.615Z,12.25
2022-10-02T20:10:03.816Z,12.24
2022-10-02T20:13:33.550Z,12.24
2022-10-02T20:16:59.293Z,12.20
2022-10-02T20:20:11.992Z,12.22
2022-10-02T20:23:26.962Z,12.19
2022-10-02T20:26:33.971Z,12.20
2022-10-02T20:29:47.086Z,12.21
2022-10-02T20:33:06.614Z,12.17
2022-10-02T20:36:23.247Z,12.13
2022-10-02T20:39:40.831Z,12.04
2022-10-02T20:43:01.960Z,12.03
2022-10-02T20:46:29.048Z,12.12
2022-10-02T20:49:54.745Z,12.08
2022-10-02T20:53:05.524Z,12.11
2022-10-02T20:56:45.871Z,12.13
2022-10-02T21:00:21.892Z,12.12
2022-10-02T21:04:09.139Z,12.11
2022-10-02T21:07:59.212Z,12.03
2022-10-02T21:11:03.782Z,11.99
2022-10-02T21:14:42.380Z,11.93
2022-10-02T21:18:29.695Z,11.94
2022-10-02T21:22:14.812Z,11.94
2022-10-02T21:26:16.471Z,11.86
2022-10-02T21:29:36.089Z,11.81
2022-10-02T21:33:05.355Z,11.78
2022-10-02T21:36:31.283Z,11.75
2022-10-02T21:40:08.107Z,11.72
2022-10-02T21:44:08.951Z,11.69
2022-10-02T21:47:54.169Z,11.69
2022-10-02T21:51:56.851Z,11.71
2022-10-02T21:55:54.951Z,11.71
2022-10-02T21:59:14.201Z,11.71
2022-10-02T22:02:37.265Z,11.68
2022-10-02T22:06:20.942Z,11.69
2022-10-02T22:10:02.186Z,11.71
2022-10-02T22:13:15.931Z,11.67
2022-10-02T22:16:28.773Z,11.68
2022-10-02T22:20:08.386Z,11.64
2022-10-02T22:23:47.671Z,11.63
2022-10-02T22:27:10.463Z,11.64
2022-10-02T22:30:29.809Z,11.60
2022-10-02T22:33:57.050Z,11.59
2022-10-02T22:37:37.844Z,11.62
2022-10-02T22:40:48.324Z,11.64
2022-10-02T22:44:12.008Z,11.54
2022-10-02T22:47:37.805Z,11.61
2022-10-02T22:50:58.207Z,11.60
2022-10-02T22:54:33.244Z,11.57
2022-10-02T22:58:05.653Z,11.54
2022-10-02T23:01:17.141Z,11.48
2022-10-02T23:04:39.124Z,11.45
2022-10-02T23:08:15.959Z,11.44
2022-10-02T23:11:56.347Z,11.43
2022-10-02T23:15:47.535Z,11.41
2022-10-02T23:19:29.531Z,11.40
2022-10-02T23:22:43.811Z,11.39
2022-10-02T23:26:12.413Z,11.41
2022-10-02T23:29:49.359Z,11.38
2022-10-02T23:33:17.822Z,11.36
2022-10-02T23:36:36.390Z,11.37
2022-10-02T23:39:53.549Z,11.36
2022-10-02T23:43:04.631Z,11.35
2022-10-02T23:46:19.783Z,11.35
2022-10-02T23:49:33.917Z,11.34
2022-10-02T23:52:57.156Z,11.41
2022-10-02T23:56:20.187Z,11.48
2022-10-02T23:59:52.788Z,11.47
